Mananjary Airport


Codes: FMSM/MNJ
Name: Mananjary Airport
City:
Country: Madagascar
Elevation: 20 ft.
Wikipedia:

Photos at Mananjary Airport


   Photos courtesy of SpottingLog. You can add your own sightings and photos by signing up for a free trial today.



No photos found.

Weather at Mananjary Airport


Time (UTC)DescriptionTempratureWindCloud coverageVisibilityPressureHumidity
25-Jun-2024 15:00Light Rain23°C9 mph, SE33%10000m1023hPa69%
25-Jun-2024 18:00Light Rain22°C9 mph, SE31%10000m1024hPa75%
25-Jun-2024 21:00Light Rain21°C9 mph, SE100%10000m1025hPa78%
26-Jun-2024 00:00Light Rain20°C7 mph, SE100%10000m1023hPa73%
26-Jun-2024 03:00Broken Clouds20°C7 mph, S56%10000m1024hPa70%
26-Jun-2024 06:00Scattered Clouds22°C7 mph, S42%10000m1025hPa65%
26-Jun-2024 09:00Light Rain23°C9 mph, S58%10000m1024hPa67%
26-Jun-2024 12:00Light Rain21°C9 mph, SE79%10000m1023hPa82%
26-Jun-2024 15:00Light Rain21°C11 mph, SE100%10000m1024hPa83%
26-Jun-2024 18:00Light Rain20°C11 mph, SE100%10000m1025hPa82%
26-Jun-2024 21:00Light Rain20°C9 mph, SE99%10000m1025hPa82%
27-Jun-2024 00:00Light Rain20°C9 mph, SE100%10000m1024hPa80%
27-Jun-2024 03:00Light Rain20°C9 mph, SE100%10000m1025hPa79%
27-Jun-2024 06:00Light Rain21°C7 mph, SE100%10000m1027hPa76%
27-Jun-2024 09:00Light Rain21°C7 mph, SE100%10000m1026hPa72%
27-Jun-2024 12:00Light Rain22°C7 mph, SE87%10000m1025hPa68%
27-Jun-2024 15:00Light Rain21°C7 mph, SE80%10000m1025hPa70%
27-Jun-2024 18:00Broken Clouds20°C4 mph, SE84%10000m1026hPa69%
27-Jun-2024 21:00Light Rain20°C7 mph, SE98%10000m1026hPa74%
28-Jun-2024 00:00Light Rain19°C7 mph, SE99%10000m1025hPa75%
28-Jun-2024 03:00Light Rain19°C7 mph, SE100%10000m1026hPa72%
28-Jun-2024 06:00Overcast Clouds20°C2 mph, S100%10000m1027hPa66%
28-Jun-2024 09:00Overcast Clouds22°C4 mph, SE87%10000m1025hPa56%
28-Jun-2024 12:00Broken Clouds22°C9 mph, SE57%10000m1024hPa58%
28-Jun-2024 15:00Broken Clouds20°C4 mph, SE79%10000m1025hPa65%
28-Jun-2024 18:00Light Rain20°C4 mph, SE89%10000m1026hPa65%
28-Jun-2024 21:00Light Rain19°C4 mph, SE100%10000m1025hPa69%
29-Jun-2024 00:00Overcast Clouds19°C2 mph, SE100%10000m1024hPa69%
29-Jun-2024 03:00Overcast Clouds19°C2 mph, SE100%10000m1024hPa65%
29-Jun-2024 06:00Overcast Clouds20°C2 mph, SE100%10000m1025hPa62%
29-Jun-2024 09:00Broken Clouds23°C4 mph, S55%10000m1024hPa46%
29-Jun-2024 12:00Broken Clouds22°C7 mph, SE53%10000m1022hPa50%
29-Jun-2024 15:00Broken Clouds20°C7 mph, SE80%10000m1023hPa64%
29-Jun-2024 18:00Overcast Clouds20°C2 mph, E90%10000m1024hPa69%
29-Jun-2024 21:00Light Rain18°C2 mph, NW97%10000m1024hPa80%
30-Jun-2024 00:00Light Rain16°C7 mph, W71%10000m1022hPa84%
30-Jun-2024 03:00Scattered Clouds16°C4 mph, W43%10000m1022hPa83%
30-Jun-2024 06:00Scattered Clouds19°C4 mph, W26%10000m1024hPa71%
30-Jun-2024 09:00Clear Sky23°C2 mph, E0%10000m1022hPa60%
30-Jun-2024 12:00Clear Sky23°C7 mph, E9%10000m1020hPa63%